sensor_id;sensor_type;location;lat;lon;timestamp;P1;durP1;ratioP1;P2;durP2;ratioP2
9052;SDS011;4561;47.450;7.516;2023-04-06T00:02:04;6.63;;;4.33;;
9052;SDS011;4561;47.450;7.516;2023-04-06T00:05:24;5.57;;;4.60;;
9052;SDS011;4561;47.450;7.516;2023-04-06T00:08:45;7.33;;;4.33;;
9052;SDS011;4561;47.450;7.516;2023-04-06T00:12:05;5.83;;;4.67;;
9052;SDS011;4561;47.450;7.516;2023-04-06T00:15:26;4.37;;;3.97;;
9052;SDS011;4561;47.450;7.516;2023-04-06T00:18:46;5.13;;;4.00;;
9052;SDS011;4561;47.450;7.516;2023-04-06T00:22:07;4.43;;;4.00;;
9052;SDS011;4561;47.450;7.516;2023-04-06T00:25:27;5.93;;;4.80;;
9052;SDS011;4561;47.450;7.516;2023-04-06T00:28:47;6.50;;;5.70;;
9052;SDS011;4561;47.450;7.516;2023-04-06T00:32:10;8.23;;;5.90;;
9052;SDS011;4561;47.450;7.516;2023-04-06T00:35:32;6.90;;;5.23;;
9052;SDS011;4561;47.450;7.516;2023-04-06T00:38:53;6.30;;;4.60;;
9052;SDS011;4561;47.450;7.516;2023-04-06T00:42:13;8.53;;;5.47;;
9052;SDS011;4561;47.450;7.516;2023-04-06T00:45:34;6.77;;;5.97;;
9052;SDS011;4561;47.450;7.516;2023-04-06T00:48:57;6.00;;;5.40;;
9052;SDS011;4561;47.450;7.516;2023-04-06T00:52:17;9.30;;;6.27;;
9052;SDS011;4561;47.450;7.516;2023-04-06T00:55:38;7.33;;;6.30;;
9052;SDS011;4561;47.450;7.516;2023-04-06T00:59:01;9.27;;;6.47;;
9052;SDS011;4561;47.450;7.516;2023-04-06T01:02:21;8.90;;;6.00;;
9052;SDS011;4561;47.450;7.516;2023-04-06T01:05:43;8.97;;;6.47;;
9052;SDS011;4561;47.450;7.516;2023-04-06T01:09:06;8.13;;;5.53;;
9052;SDS011;4561;47.450;7.516;2023-04-06T01:12:31;6.77;;;5.23;;
9052;SDS011;4561;47.450;7.516;2023-04-06T01:15:52;6.33;;;4.90;;
9052;SDS011;4561;47.450;7.516;2023-04-06T01:19:15;6.40;;;5.30;;
9052;SDS011;4561;47.450;7.516;2023-04-06T01:22:36;7.17;;;5.17;;
9052;SDS011;4561;47.450;7.516;2023-04-06T01:25:56;5.80;;;4.53;;
9052;SDS011;4561;47.450;7.516;2023-04-06T01:29:17;6.13;;;5.30;;
9052;SDS011;4561;47.450;7.516;2023-04-06T01:32:37;6.87;;;5.57;;
9052;SDS011;4561;47.450;7.516;2023-04-06T01:35:58;5.93;;;5.30;;
9052;SDS011;4561;47.450;7.516;2023-04-06T01:39:19;7.37;;;5.50;;
9052;SDS011;4561;47.450;7.516;2023-04-06T01:42:42;5.83;;;4.77;;
9052;SDS011;4561;47.450;7.516;2023-04-06T01:46:05;6.20;;;5.53;;
9052;SDS011;4561;47.450;7.516;2023-04-06T01:49:26;6.93;;;5.50;;
9052;SDS011;4561;47.450;7.516;2023-04-06T01:52:51;5.60;;;5.03;;
9052;SDS011;4561;47.450;7.516;2023-04-06T01:56:11;7.13;;;5.73;;
9052;SDS011;4561;47.450;7.516;2023-04-06T01:59:34;6.50;;;5.37;;
9052;SDS011;4561;47.450;7.516;2023-04-06T02:02:57;6.87;;;5.20;;
9052;SDS011;4561;47.450;7.516;2023-04-06T02:06:22;5.93;;;4.73;;
9052;SDS011;4561;47.450;7.516;2023-04-06T02:09:42;6.33;;;5.00;;
9052;SDS011;4561;47.450;7.516;2023-04-06T02:13:02;5.63;;;5.13;;
9052;SDS011;4561;47.450;7.516;2023-04-06T02:16:25;6.37;;;5.13;;
9052;SDS011;4561;47.450;7.516;2023-04-06T02:19:45;5.53;;;5.03;;
9052;SDS011;4561;47.450;7.516;2023-04-06T02:23:06;6.03;;;4.97;;
9052;SDS011;4561;47.450;7.516;2023-04-06T02:26:26;5.30;;;4.80;;
9052;SDS011;4561;47.450;7.516;2023-04-06T02:29:47;6.07;;;5.07;;
9052;SDS011;4561;47.450;7.516;2023-04-06T02:33:07;5.20;;;4.70;;
9052;SDS011;4561;47.450;7.516;2023-04-06T02:36:27;5.83;;;5.03;;
9052;SDS011;4561;47.450;7.516;2023-04-06T02:39:48;5.33;;;4.83;;
9052;SDS011;4561;47.450;7.516;2023-04-06T02:43:08;5.30;;;4.80;;
9052;SDS011;4561;47.450;7.516;2023-04-06T02:46:29;5.97;;;4.90;;
9052;SDS011;4561;47.450;7.516;2023-04-06T02:49:49;6.77;;;4.93;;
9052;SDS011;4561;47.450;7.516;2023-04-06T02:53:10;6.53;;;4.87;;
9052;SDS011;4561;47.450;7.516;2023-04-06T02:56:30;5.80;;;5.30;;
9052;SDS011;4561;47.450;7.516;2023-04-06T02:59:51;6.57;;;5.47;;
9052;SDS011;4561;47.450;7.516;2023-04-06T03:03:11;7.37;;;4.97;;
9052;SDS011;4561;47.450;7.516;2023-04-06T03:06:31;5.83;;;5.23;;
9052;SDS011;4561;47.450;7.516;2023-04-06T03:09:52;7.23;;;5.60;;
9052;SDS011;4561;47.450;7.516;2023-04-06T03:13:12;5.87;;;5.37;;
9052;SDS011;4561;47.450;7.516;2023-04-06T03:16:32;6.20;;;5.60;;
9052;SDS011;4561;47.450;7.516;2023-04-06T03:19:53;6.00;;;5.40;;
9052;SDS011;4561;47.450;7.516;2023-04-06T03:23:13;6.03;;;5.40;;
9052;SDS011;4561;47.450;7.516;2023-04-06T03:26:34;6.67;;;6.07;;
9052;SDS011;4561;47.450;7.516;2023-04-06T03:29:54;7.57;;;5.83;;
9052;SDS011;4561;47.450;7.516;2023-04-06T03:33:17;6.57;;;5.57;;
9052;SDS011;4561;47.450;7.516;2023-04-06T03:36:37;6.80;;;5.70;;
9052;SDS011;4561;47.450;7.516;2023-04-06T03:39:58;7.30;;;5.43;;
9052;SDS011;4561;47.450;7.516;2023-04-06T03:43:20;6.17;;;4.70;;
9052;SDS011;4561;47.450;7.516;2023-04-06T03:46:41;6.57;;;5.53;;
9052;SDS011;4561;47.450;7.516;2023-04-06T03:50:01;6.87;;;6.17;;
9052;SDS011;4561;47.450;7.516;2023-04-06T03:53:23;6.23;;;5.63;;
9052;SDS011;4561;47.450;7.516;2023-04-06T03:56:43;6.33;;;5.73;;
9052;SDS011;4561;47.450;7.516;2023-04-06T04:00:03;5.97;;;5.37;;
9052;SDS011;4561;47.450;7.516;2023-04-06T04:03:27;6.93;;;5.43;;
9052;SDS011;4561;47.450;7.516;2023-04-06T04:06:47;5.37;;;4.87;;
9052;SDS011;4561;47.450;7.516;2023-04-06T04:10:08;8.43;;;5.07;;
9052;SDS011;4561;47.450;7.516;2023-04-06T04:13:31;6.33;;;5.33;;
9052;SDS011;4561;47.450;7.516;2023-04-06T04:16:51;6.47;;;5.27;;
9052;SDS011;4561;47.450;7.516;2023-04-06T04:20:12;7.00;;;5.50;;
9052;SDS011;4561;47.450;7.516;2023-04-06T04:23:35;8.20;;;5.63;;
9052;SDS011;4561;47.450;7.516;2023-04-06T04:26:56;7.17;;;5.03;;
9052;SDS011;4561;47.450;7.516;2023-04-06T04:30:16;5.67;;;4.87;;
9052;SDS011;4561;47.450;7.516;2023-04-06T04:33:37;6.30;;;5.20;;
9052;SDS011;4561;47.450;7.516;2023-04-06T04:36:57;5.83;;;5.23;;
9052;SDS011;4561;47.450;7.516;2023-04-06T04:40:20;6.53;;;5.20;;
9052;SDS011;4561;47.450;7.516;2023-04-06T04:43:41;6.77;;;6.10;;
9052;SDS011;4561;47.450;7.516;2023-04-06T04:47:01;16.37;;;14.30;;
9052;SDS011;4561;47.450;7.516;2023-04-06T04:50:22;10.70;;;8.67;;
9052;SDS011;4561;47.450;7.516;2023-04-06T04:53:42;6.43;;;5.40;;
9052;SDS011;4561;47.450;7.516;2023-04-06T04:57:03;6.10;;;5.43;;
9052;SDS011;4561;47.450;7.516;2023-04-06T05:00:23;5.13;;;4.63;;
9052;SDS011;4561;47.450;7.516;2023-04-06T05:03:44;4.77;;;4.37;;
9052;SDS011;4561;47.450;7.516;2023-04-06T05:07:05;6.13;;;5.53;;
9052;SDS011;4561;47.450;7.516;2023-04-06T05:10:28;7.90;;;5.10;;
9052;SDS011;4561;47.450;7.516;2023-04-06T05:13:51;6.37;;;5.73;;
9052;SDS011;4561;47.450;7.516;2023-04-06T05:17:11;6.47;;;5.50;;
9052;SDS011;4561;47.450;7.516;2023-04-06T05:20:39;6.07;;;5.10;;
9052;SDS011;4561;47.450;7.516;2023-04-06T05:24:02;6.17;;;5.57;;
9052;SDS011;4561;47.450;7.516;2023-04-06T05:27:23;7.47;;;5.80;;
9052;SDS011;4561;47.450;7.516;2023-04-06T05:30:45;7.60;;;5.83;;
9052;SDS011;4561;47.450;7.516;2023-04-06T05:34:06;6.50;;;5.67;;
9052;SDS011;4561;47.450;7.516;2023-04-06T05:37:29;6.80;;;5.43;;
9052;SDS011;4561;47.450;7.516;2023-04-06T05:40:52;5.63;;;5.13;;
9052;SDS011;4561;47.450;7.516;2023-04-06T05:44:13;6.30;;;4.70;;
9052;SDS011;4561;47.450;7.516;2023-04-06T05:47:33;6.73;;;5.27;;
9052;SDS011;4561;47.450;7.516;2023-04-06T05:50:57;6.10;;;5.60;;
9052;SDS011;4561;47.450;7.516;2023-04-06T05:54:20;5.30;;;4.80;;
9052;SDS011;4561;47.450;7.516;2023-04-06T05:57:43;7.57;;;5.07;;
9052;SDS011;4561;47.450;7.516;2023-04-06T06:01:03;6.07;;;5.20;;
9052;SDS011;4561;47.450;7.516;2023-04-06T06:04:24;7.27;;;5.80;;
9052;SDS011;4561;47.450;7.516;2023-04-06T06:07:45;9.77;;;6.53;;
9052;SDS011;4561;47.450;7.516;2023-04-06T06:11:05;6.87;;;5.90;;
9052;SDS011;4561;47.450;7.516;2023-04-06T06:14:25;8.37;;;6.27;;
9052;SDS011;4561;47.450;7.516;2023-04-06T06:17:48;7.47;;;6.03;;
9052;SDS011;4561;47.450;7.516;2023-04-06T06:21:11;10.30;;;6.17;;
9052;SDS011;4561;47.450;7.516;2023-04-06T06:24:32;7.73;;;6.27;;
9052;SDS011;4561;47.450;7.516;2023-04-06T06:27:55;8.87;;;6.70;;
9052;SDS011;4561;47.450;7.516;2023-04-06T06:31:20;9.40;;;6.30;;
9052;SDS011;4561;47.450;7.516;2023-04-06T06:34:42;7.70;;;6.33;;
9052;SDS011;4561;47.450;7.516;2023-04-06T06:38:05;6.13;;;5.30;;
9052;SDS011;4561;47.450;7.516;2023-04-06T06:41:28;6.77;;;5.90;;
9052;SDS011;4561;47.450;7.516;2023-04-06T06:44:48;5.83;;;5.30;;
9052;SDS011;4561;47.450;7.516;2023-04-06T06:48:09;5.17;;;4.67;;
9052;SDS011;4561;47.450;7.516;2023-04-06T06:51:29;5.13;;;4.63;;
9052;SDS011;4561;47.450;7.516;2023-04-06T06:54:50;5.43;;;4.93;;
9052;SDS011;4561;47.450;7.516;2023-04-06T06:58:10;4.83;;;4.23;;
9052;SDS011;4561;47.450;7.516;2023-04-06T07:01:33;5.30;;;4.80;;
9052;SDS011;4561;47.450;7.516;2023-04-06T07:04:54;5.63;;;4.97;;
9052;SDS011;4561;47.450;7.516;2023-04-06T07:08:15;5.10;;;4.50;;
9052;SDS011;4561;47.450;7.516;2023-04-06T07:11:36;5.43;;;4.83;;
9052;SDS011;4561;47.450;7.516;2023-04-06T07:14:58;5.17;;;4.67;;
9052;SDS011;4561;47.450;7.516;2023-04-06T07:18:19;5.13;;;4.30;;
9052;SDS011;4561;47.450;7.516;2023-04-06T07:21:42;8.03;;;4.50;;
9052;SDS011;4561;47.450;7.516;2023-04-06T07:25:02;6.13;;;4.03;;
9052;SDS011;4561;47.450;7.516;2023-04-06T07:28:23;5.13;;;4.63;;
9052;SDS011;4561;47.450;7.516;2023-04-06T07:31:43;5.57;;;4.47;;
9052;SDS011;4561;47.450;7.516;2023-04-06T07:35:03;5.20;;;4.70;;
9052;SDS011;4561;47.450;7.516;2023-04-06T07:38:27;5.60;;;5.00;;
9052;SDS011;4561;47.450;7.516;2023-04-06T07:41:47;7.27;;;4.70;;
9052;SDS011;4561;47.450;7.516;2023-04-06T07:45:07;5.93;;;4.37;;
9052;SDS011;4561;47.450;7.516;2023-04-06T07:48:28;5.20;;;4.70;;
9052;SDS011;4561;47.450;7.516;2023-04-06T07:51:49;5.40;;;4.70;;
9052;SDS011;4561;47.450;7.516;2023-04-06T07:55:13;7.33;;;5.23;;
9052;SDS011;4561;47.450;7.516;2023-04-06T07:58:33;6.20;;;4.63;;
9052;SDS011;4561;47.450;7.516;2023-04-06T08:01:54;6.43;;;4.50;;
9052;SDS011;4561;47.450;7.516;2023-04-06T08:05:14;5.83;;;4.83;;
9052;SDS011;4561;47.450;7.516;2023-04-06T08:08:35;9.40;;;4.30;;
9052;SDS011;4561;47.450;7.516;2023-04-06T08:12:00;4.80;;;4.27;;
9052;SDS011;4561;47.450;7.516;2023-04-06T08:15:20;4.83;;;4.43;;
9052;SDS011;4561;47.450;7.516;2023-04-06T08:18:43;5.17;;;4.57;;
9052;SDS011;4561;47.450;7.516;2023-04-06T08:22:03;8.60;;;4.50;;
9052;SDS011;4561;47.450;7.516;2023-04-06T08:25:24;6.23;;;4.50;;
9052;SDS011;4561;47.450;7.516;2023-04-06T08:28:44;8.37;;;4.63;;
9052;SDS011;4561;47.450;7.516;2023-04-06T08:32:05;5.23;;;4.70;;
9052;SDS011;4561;47.450;7.516;2023-04-06T08:35:26;5.07;;;4.20;;
9052;SDS011;4561;47.450;7.516;2023-04-06T08:38:47;6.33;;;4.50;;
9052;SDS011;4561;47.450;7.516;2023-04-06T08:42:16;6.43;;;4.53;;
9052;SDS011;4561;47.450;7.516;2023-04-06T08:45:40;5.30;;;4.80;;
9052;SDS011;4561;47.450;7.516;2023-04-06T08:49:03;8.37;;;4.37;;
9052;SDS011;4561;47.450;7.516;2023-04-06T08:52:26;6.73;;;4.60;;
9052;SDS011;4561;47.450;7.516;2023-04-06T08:55:46;5.07;;;4.57;;
9052;SDS011;4561;47.450;7.516;2023-04-06T08:59:08;5.30;;;4.80;;
9052;SDS011;4561;47.450;7.516;2023-04-06T09:02:29;5.97;;;4.70;;
9052;SDS011;4561;47.450;7.516;2023-04-06T09:05:50;5.20;;;4.70;;
9052;SDS011;4561;47.450;7.516;2023-04-06T09:09:11;6.37;;;5.10;;
9052;SDS011;4561;47.450;7.516;2023-04-06T09:12:32;7.90;;;4.90;;
9052;SDS011;4561;47.450;7.516;2023-04-06T09:16:02;8.67;;;5.13;;
9052;SDS011;4561;47.450;7.516;2023-04-06T09:19:26;6.67;;;4.90;;
9052;SDS011;4561;47.450;7.516;2023-04-06T09:22:46;6.87;;;4.70;;
9052;SDS011;4561;47.450;7.516;2023-04-06T09:26:10;5.63;;;4.47;;
9052;SDS011;4561;47.450;7.516;2023-04-06T09:29:30;6.53;;;5.10;;
9052;SDS011;4561;47.450;7.516;2023-04-06T09:32:55;6.10;;;4.53;;
9052;SDS011;4561;47.450;7.516;2023-04-06T09:36:16;6.47;;;4.50;;
9052;SDS011;4561;47.450;7.516;2023-04-06T09:39:37;5.47;;;4.63;;
9052;SDS011;4561;47.450;7.516;2023-04-06T09:42:57;6.10;;;4.90;;
9052;SDS011;4561;47.450;7.516;2023-04-06T09:46:20;4.63;;;4.23;;
9052;SDS011;4561;47.450;7.516;2023-04-06T09:49:42;6.03;;;5.25;;
9052;SDS011;4561;47.450;7.516;2023-04-06T09:53:03;5.25;;;4.75;;
9052;SDS011;4561;47.450;7.516;2023-04-06T09:56:24;6.38;;;4.78;;
9052;SDS011;4561;47.450;7.516;2023-04-06T10:03:45;5.63;;;4.45;;
9052;SDS011;4561;47.450;7.516;2023-04-06T10:07:09;4.90;;;4.50;;
9052;SDS011;4561;47.450;7.516;2023-04-06T10:10:31;4.93;;;4.53;;
9052;SDS011;4561;47.450;7.516;2023-04-06T10:13:52;7.07;;;5.05;;
9052;SDS011;4561;47.450;7.516;2023-04-06T10:17:12;8.68;;;4.85;;
9052;SDS011;4561;47.450;7.516;2023-04-06T10:24:02;4.68;;;4.28;;
9052;SDS011;4561;47.450;7.516;2023-04-06T10:27:30;5.28;;;4.78;;
9052;SDS011;4561;47.450;7.516;2023-04-06T10:31:00;4.43;;;4.03;;
9052;SDS011;4561;47.450;7.516;2023-04-06T10:34:21;4.55;;;3.70;;
9052;SDS011;4561;47.450;7.516;2023-04-06T10:38:00;4.90;;;4.40;;
9052;SDS011;4561;47.450;7.516;2023-04-06T10:41:24;4.80;;;4.30;;
9052;SDS011;4561;47.450;7.516;2023-04-06T10:44:52;4.47;;;3.88;;
9052;SDS011;4561;47.450;7.516;2023-04-06T10:48:16;4.50;;;4.10;;
9052;SDS011;4561;47.450;7.516;2023-04-06T10:51:37;4.53;;;4.10;;
9052;SDS011;4561;47.450;7.516;2023-04-06T10:55:01;5.95;;;4.13;;
9052;SDS011;4561;47.450;7.516;2023-04-06T10:58:25;4.80;;;4.30;;
9052;SDS011;4561;47.450;7.516;2023-04-06T11:01:46;4.80;;;4.30;;
9052;SDS011;4561;47.450;7.516;2023-04-06T11:05:07;4.50;;;3.63;;
9052;SDS011;4561;47.450;7.516;2023-04-06T11:08:31;4.28;;;3.88;;
9052;SDS011;4561;47.450;7.516;2023-04-06T11:11:52;4.15;;;3.78;;
9052;SDS011;4561;47.450;7.516;2023-04-06T11:15:13;5.00;;;3.70;;
9052;SDS011;4561;47.450;7.516;2023-04-06T11:18:45;6.47;;;3.75;;
9052;SDS011;4561;47.450;7.516;2023-04-06T11:22:18;4.85;;;3.90;;
9052;SDS011;4561;47.450;7.516;2023-04-06T11:25:38;4.38;;;3.45;;
9052;SDS011;4561;47.450;7.516;2023-04-06T11:28:59;7.47;;;3.45;;
9052;SDS011;4561;47.450;7.516;2023-04-06T11:32:20;5.13;;;3.20;;
9052;SDS011;4561;47.450;7.516;2023-04-06T11:35:41;5.57;;;3.27;;
9052;SDS011;4561;47.450;7.516;2023-04-06T11:39:03;3.33;;;3.03;;
9052;SDS011;4561;47.450;7.516;2023-04-06T11:42:26;3.63;;;2.60;;
9052;SDS011;4561;47.450;7.516;2023-04-06T11:45:50;5.50;;;3.10;;
9052;SDS011;4561;47.450;7.516;2023-04-06T11:49:10;4.87;;;3.50;;
9052;SDS011;4561;47.450;7.516;2023-04-06T11:52:35;3.67;;;3.00;;
9052;SDS011;4561;47.450;7.516;2023-04-06T11:55:56;3.57;;;2.80;;
9052;SDS011;4561;47.450;7.516;2023-04-06T11:59:17;3.77;;;3.17;;
9052;SDS011;4561;47.450;7.516;2023-04-06T12:02:37;3.43;;;3.13;;
9052;SDS011;4561;47.450;7.516;2023-04-06T12:05:58;4.20;;;3.30;;
9052;SDS011;4561;47.450;7.516;2023-04-06T12:09:18;5.43;;;3.67;;
9052;SDS011;4561;47.450;7.516;2023-04-06T12:12:39;2.80;;;2.57;;
9052;SDS011;4561;47.450;7.516;2023-04-06T12:16:00;2.97;;;2.60;;
9052;SDS011;4561;47.450;7.516;2023-04-06T12:19:20;2.80;;;2.27;;
9052;SDS011;4561;47.450;7.516;2023-04-06T12:22:41;2.63;;;2.20;;
9052;SDS011;4561;47.450;7.516;2023-04-06T12:26:01;4.20;;;3.70;;
9052;SDS011;4561;47.450;7.516;2023-04-06T12:29:24;3.90;;;3.50;;
9052;SDS011;4561;47.450;7.516;2023-04-06T12:32:44;8.33;;;4.17;;
9052;SDS011;4561;47.450;7.516;2023-04-06T12:36:10;5.03;;;3.87;;
9052;SDS011;4561;47.450;7.516;2023-04-06T12:39:32;5.63;;;4.60;;
9052;SDS011;4561;47.450;7.516;2023-04-06T12:42:52;7.17;;;4.90;;
9052;SDS011;4561;47.450;7.516;2023-04-06T12:46:16;5.23;;;4.60;;
9052;SDS011;4561;47.450;7.516;2023-04-06T12:49:37;4.33;;;3.80;;
9052;SDS011;4561;47.450;7.516;2023-04-06T12:52:57;6.97;;;5.57;;
9052;SDS011;4561;47.450;7.516;2023-04-06T12:56:17;7.57;;;6.00;;
9052;SDS011;4561;47.450;7.516;2023-04-06T12:59:38;5.47;;;4.97;;
9052;SDS011;4561;47.450;7.516;2023-04-06T13:02:58;5.93;;;5.10;;
9052;SDS011;4561;47.450;7.516;2023-04-06T13:06:19;8.53;;;5.33;;
9052;SDS011;4561;47.450;7.516;2023-04-06T13:09:39;6.07;;;5.47;;
9052;SDS011;4561;47.450;7.516;2023-04-06T13:12:59;7.93;;;6.63;;
9052;SDS011;4561;47.450;7.516;2023-04-06T13:16:23;8.03;;;6.50;;
9052;SDS011;4561;47.450;7.516;2023-04-06T13:19:43;7.70;;;6.43;;
9052;SDS011;4561;47.450;7.516;2023-04-06T13:23:07;8.80;;;6.97;;
9052;SDS011;4561;47.450;7.516;2023-04-06T13:26:29;9.13;;;6.47;;
9052;SDS011;4561;47.450;7.516;2023-04-06T13:29:50;8.73;;;6.23;;
9052;SDS011;4561;47.450;7.516;2023-04-06T13:33:10;8.20;;;6.90;;
9052;SDS011;4561;47.450;7.516;2023-04-06T13:36:31;7.60;;;6.53;;
9052;SDS011;4561;47.450;7.516;2023-04-06T13:39:55;7.47;;;6.60;;
9052;SDS011;4561;47.450;7.516;2023-04-06T13:43:16;6.90;;;6.17;;
9052;SDS011;4561;47.450;7.516;2023-04-06T13:46:39;7.67;;;6.87;;
9052;SDS011;4561;47.450;7.516;2023-04-06T13:49:59;8.23;;;6.87;;
9052;SDS011;4561;47.450;7.516;2023-04-06T13:53:20;9.47;;;7.87;;
9052;SDS011;4561;47.450;7.516;2023-04-06T13:56:40;7.37;;;6.67;;
9052;SDS011;4561;47.450;7.516;2023-04-06T14:00:01;8.87;;;7.40;;
9052;SDS011;4561;47.450;7.516;2023-04-06T14:03:21;8.73;;;6.87;;
9052;SDS011;4561;47.450;7.516;2023-04-06T14:06:44;10.73;;;7.47;;
9052;SDS011;4561;47.450;7.516;2023-04-06T14:10:05;7.03;;;6.33;;
9052;SDS011;4561;47.450;7.516;2023-04-06T14:13:33;8.17;;;5.77;;
9052;SDS011;4561;47.450;7.516;2023-04-06T14:16:54;7.37;;;5.93;;
9052;SDS011;4561;47.450;7.516;2023-04-06T14:20:14;8.03;;;6.50;;
9052;SDS011;4561;47.450;7.516;2023-04-06T14:23:35;7.83;;;7.03;;
9052;SDS011;4561;47.450;7.516;2023-04-06T14:26:55;6.53;;;5.87;;
9052;SDS011;4561;47.450;7.516;2023-04-06T14:30:16;8.03;;;5.90;;
9052;SDS011;4561;47.450;7.516;2023-04-06T14:33:37;6.47;;;5.77;;
9052;SDS011;4561;47.450;7.516;2023-04-06T14:37:00;8.60;;;7.63;;
9052;SDS011;4561;47.450;7.516;2023-04-06T14:40:20;8.90;;;7.33;;
9052;SDS011;4561;47.450;7.516;2023-04-06T14:43:41;7.83;;;6.93;;
9052;SDS011;4561;47.450;7.516;2023-04-06T14:47:01;6.60;;;5.93;;
9052;SDS011;4561;47.450;7.516;2023-04-06T14:50:23;6.47;;;5.70;;
9052;SDS011;4561;47.450;7.516;2023-04-06T14:53:44;7.60;;;5.73;;
9052;SDS011;4561;47.450;7.516;2023-04-06T14:57:06;8.03;;;6.20;;
9052;SDS011;4561;47.450;7.516;2023-04-06T15:00:27;6.90;;;6.20;;
9052;SDS011;4561;47.450;7.516;2023-04-06T15:03:47;7.93;;;6.77;;
9052;SDS011;4561;47.450;7.516;2023-04-06T15:07:07;8.63;;;6.57;;
9052;SDS011;4561;47.450;7.516;2023-04-06T15:10:31;8.27;;;6.40;;
9052;SDS011;4561;47.450;7.516;2023-04-06T15:13:52;7.63;;;5.63;;
9052;SDS011;4561;47.450;7.516;2023-04-06T15:17:12;6.47;;;5.77;;
9052;SDS011;4561;47.450;7.516;2023-04-06T15:20:35;6.97;;;5.90;;
9052;SDS011;4561;47.450;7.516;2023-04-06T15:23:55;6.43;;;5.83;;
9052;SDS011;4561;47.450;7.516;2023-04-06T15:27:16;6.67;;;5.37;;
9052;SDS011;4561;47.450;7.516;2023-04-06T15:30:37;7.90;;;5.50;;
9052;SDS011;4561;47.450;7.516;2023-04-06T15:33:57;9.97;;;6.50;;
9052;SDS011;4561;47.450;7.516;2023-04-06T15:37:18;6.83;;;5.93;;
9052;SDS011;4561;47.450;7.516;2023-04-06T15:40:42;6.93;;;6.23;;
9052;SDS011;4561;47.450;7.516;2023-04-06T15:44:03;7.47;;;6.27;;
9052;SDS011;4561;47.450;7.516;2023-04-06T15:47:24;6.57;;;5.97;;
9052;SDS011;4561;47.450;7.516;2023-04-06T15:50:46;7.10;;;5.63;;
9052;SDS011;4561;47.450;7.516;2023-04-06T15:54:07;6.60;;;5.33;;
9052;SDS011;4561;47.450;7.516;2023-04-06T15:57:27;7.73;;;6.30;;
9052;SDS011;4561;47.450;7.516;2023-04-06T16:00:48;6.20;;;5.43;;
9052;SDS011;4561;47.450;7.516;2023-04-06T16:04:08;8.13;;;6.07;;
9052;SDS011;4561;47.450;7.516;2023-04-06T16:07:32;6.23;;;5.63;;
9052;SDS011;4561;47.450;7.516;2023-04-06T16:10:53;6.03;;;5.43;;
9052;SDS011;4561;47.450;7.516;2023-04-06T16:14:13;9.30;;;5.57;;
9052;SDS011;4561;47.450;7.516;2023-04-06T16:17:36;6.10;;;5.50;;
9052;SDS011;4561;47.450;7.516;2023-04-06T16:20:56;7.50;;;5.73;;
9052;SDS011;4561;47.450;7.516;2023-04-06T16:24:17;7.53;;;5.40;;
9052;SDS011;4561;47.450;7.516;2023-04-06T16:27:40;6.73;;;5.97;;
9052;SDS011;4561;47.450;7.516;2023-04-06T16:31:00;9.30;;;6.83;;
9052;SDS011;4561;47.450;7.516;2023-04-06T16:34:21;6.27;;;5.67;;
9052;SDS011;4561;47.450;7.516;2023-04-06T16:37:44;10.00;;;5.77;;
9052;SDS011;4561;47.450;7.516;2023-04-06T16:41:06;6.30;;;5.63;;
9052;SDS011;4561;47.450;7.516;2023-04-06T16:44:27;11.57;;;5.90;;
9052;SDS011;4561;47.450;7.516;2023-04-06T16:47:47;5.30;;;4.77;;
9052;SDS011;4561;47.450;7.516;2023-04-06T16:51:09;6.87;;;4.97;;
9052;SDS011;4561;47.450;7.516;2023-04-06T16:54:29;6.00;;;4.60;;
9052;SDS011;4561;47.450;7.516;2023-04-06T16:57:54;5.83;;;5.33;;
9052;SDS011;4561;47.450;7.516;2023-04-06T17:01:18;7.03;;;4.97;;
9052;SDS011;4561;47.450;7.516;2023-04-06T17:04:39;6.50;;;5.00;;
9052;SDS011;4561;47.450;7.516;2023-04-06T17:08:00;6.30;;;5.17;;
9052;SDS011;4561;47.450;7.516;2023-04-06T17:11:21;6.63;;;5.50;;
9052;SDS011;4561;47.450;7.516;2023-04-06T17:14:42;6.50;;;5.07;;
9052;SDS011;4561;47.450;7.516;2023-04-06T17:18:02;6.53;;;4.83;;
9052;SDS011;4561;47.450;7.516;2023-04-06T17:21:23;7.40;;;4.70;;
9052;SDS011;4561;47.450;7.516;2023-04-06T17:24:43;5.93;;;5.07;;
9052;SDS011;4561;47.450;7.516;2023-04-06T17:28:03;6.07;;;5.47;;
9052;SDS011;4561;47.450;7.516;2023-04-06T17:31:24;5.70;;;5.10;;
9052;SDS011;4561;47.450;7.516;2023-04-06T17:34:45;6.37;;;4.50;;
9052;SDS011;4561;47.450;7.516;2023-04-06T17:38:05;4.97;;;3.93;;
9052;SDS011;4561;47.450;7.516;2023-04-06T17:41:27;4.43;;;3.27;;
9052;SDS011;4561;47.450;7.516;2023-04-06T17:44:51;4.83;;;4.03;;
9052;SDS011;4561;47.450;7.516;2023-04-06T17:48:14;4.73;;;4.23;;
9052;SDS011;4561;47.450;7.516;2023-04-06T17:51:35;4.60;;;4.10;;
9052;SDS011;4561;47.450;7.516;2023-04-06T17:54:55;4.67;;;3.90;;
9052;SDS011;4561;47.450;7.516;2023-04-06T17:58:15;6.93;;;4.10;;
9052;SDS011;4561;47.450;7.516;2023-04-06T18:01:37;8.83;;;6.77;;
9052;SDS011;4561;47.450;7.516;2023-04-06T18:05:00;9.03;;;4.10;;
9052;SDS011;4561;47.450;7.516;2023-04-06T18:08:20;3.97;;;2.83;;
9052;SDS011;4561;47.450;7.516;2023-04-06T18:11:46;5.10;;;3.83;;
9052;SDS011;4561;47.450;7.516;2023-04-06T18:15:06;3.43;;;2.83;;
9052;SDS011;4561;47.450;7.516;2023-04-06T18:18:27;5.10;;;2.77;;
9052;SDS011;4561;47.450;7.516;2023-04-06T18:21:48;3.97;;;2.77;;
9052;SDS011;4561;47.450;7.516;2023-04-06T18:25:08;2.83;;;2.53;;
9052;SDS011;4561;47.450;7.516;2023-04-06T18:28:29;4.53;;;2.47;;
9052;SDS011;4561;47.450;7.516;2023-04-06T18:31:50;2.03;;;1.83;;
9052;SDS011;4561;47.450;7.516;2023-04-06T18:35:14;3.17;;;2.07;;
9052;SDS011;4561;47.450;7.516;2023-04-06T18:38:34;1.63;;;1.43;;
9052;SDS011;4561;47.450;7.516;2023-04-06T18:41:57;2.73;;;1.50;;
9052;SDS011;4561;47.450;7.516;2023-04-06T18:45:17;1.73;;;1.50;;
9052;SDS011;4561;47.450;7.516;2023-04-06T18:48:42;2.13;;;1.47;;
9052;SDS011;4561;47.450;7.516;2023-04-06T18:52:06;1.93;;;1.33;;
9052;SDS011;4561;47.450;7.516;2023-04-06T18:55:31;1.57;;;1.20;;
9052;SDS011;4561;47.450;7.516;2023-04-06T18:58:52;3.47;;;1.90;;
9052;SDS011;4561;47.450;7.516;2023-04-06T19:02:13;2.00;;;1.30;;
9052;SDS011;4561;47.450;7.516;2023-04-06T19:05:33;2.77;;;1.20;;
9052;SDS011;4561;47.450;7.516;2023-04-06T19:08:53;3.37;;;1.83;;
9052;SDS011;4561;47.450;7.516;2023-04-06T19:12:14;2.67;;;1.80;;
9052;SDS011;4561;47.450;7.516;2023-04-06T19:15:35;2.97;;;1.80;;
9052;SDS011;4561;47.450;7.516;2023-04-06T19:18:55;1.90;;;1.37;;
9052;SDS011;4561;47.450;7.516;2023-04-06T19:22:16;1.80;;;1.40;;
9052;SDS011;4561;47.450;7.516;2023-04-06T19:25:41;1.83;;;1.50;;
9052;SDS011;4561;47.450;7.516;2023-04-06T19:29:04;1.50;;;1.30;;
9052;SDS011;4561;47.450;7.516;2023-04-06T19:32:24;1.67;;;1.30;;
9052;SDS011;4561;47.450;7.516;2023-04-06T19:35:45;2.80;;;1.43;;
9052;SDS011;4561;47.450;7.516;2023-04-06T19:39:06;1.40;;;1.30;;
9052;SDS011;4561;47.450;7.516;2023-04-06T19:42:26;1.40;;;1.30;;
9052;SDS011;4561;47.450;7.516;2023-04-06T19:45:46;2.40;;;1.63;;
9052;SDS011;4561;47.450;7.516;2023-04-06T19:49:07;1.70;;;1.60;;
9052;SDS011;4561;47.450;7.516;2023-04-06T19:52:27;1.70;;;1.60;;
9052;SDS011;4561;47.450;7.516;2023-04-06T19:55:51;3.17;;;1.60;;
9052;SDS011;4561;47.450;7.516;2023-04-06T19:59:12;2.07;;;1.60;;
9052;SDS011;4561;47.450;7.516;2023-04-06T20:02:34;2.17;;;1.47;;
9052;SDS011;4561;47.450;7.516;2023-04-06T20:05:55;2.33;;;1.67;;
9052;SDS011;4561;47.450;7.516;2023-04-06T20:09:15;1.70;;;1.60;;
9052;SDS011;4561;47.450;7.516;2023-04-06T20:12:36;2.47;;;1.97;;
9052;SDS011;4561;47.450;7.516;2023-04-06T20:15:58;2.07;;;1.77;;
9052;SDS011;4561;47.450;7.516;2023-04-06T20:19:20;3.17;;;2.17;;
9052;SDS011;4561;47.450;7.516;2023-04-06T20:22:41;4.70;;;1.80;;
9052;SDS011;4561;47.450;7.516;2023-04-06T20:26:02;2.40;;;1.70;;
9052;SDS011;4561;47.450;7.516;2023-04-06T20:29:23;1.77;;;1.40;;
9052;SDS011;4561;47.450;7.516;2023-04-06T20:32:43;1.77;;;1.67;;
9052;SDS011;4561;47.450;7.516;2023-04-06T20:36:03;2.20;;;1.70;;
9052;SDS011;4561;47.450;7.516;2023-04-06T20:39:24;2.60;;;1.70;;
9052;SDS011;4561;47.450;7.516;2023-04-06T20:42:48;2.57;;;1.57;;
9052;SDS011;4561;47.450;7.516;2023-04-06T20:46:13;1.60;;;1.50;;
9052;SDS011;4561;47.450;7.516;2023-04-06T20:49:34;2.50;;;2.07;;
9052;SDS011;4561;47.450;7.516;2023-04-06T20:52:55;5.27;;;1.90;;
9052;SDS011;4561;47.450;7.516;2023-04-06T20:56:15;3.33;;;1.90;;
9052;SDS011;4561;47.450;7.516;2023-04-06T20:59:35;3.33;;;2.03;;